Weather observations for the past three days for
Truckee-Tahoe
Imperial (Metric)
Date Time (pdt) Wind (mph) Vis. (mi.) Weather Sky Cond. Temperature (ºF) Relative Humidity Wind Chill (°F) Heat Index (°F) Pressure Precipitation (in)
Air Dwpt 6 hour altimeter (in) sea level (mb) 1 hr 3 hr 6 hr
Max. Min.
06 12:50 N 16 10.00 Fair CLR 66.2 32 28% 30.23 0.0
06 11:50 N 8 10.00 Fair CLR 64.4 44.6 49% 30.23 0.0
06 10:50 Calm 10.00 Fair CLR 60.8 42.8 52% 30.23 0.0
06 09:48 Calm 10.00 Fair CLR 50 46.4 88% 30.24 0.0
06 08:50 Calm 0.50 Fog OVC002 44.6 44.6 100% 30.23 0.0
06 07:50 Calm 0.13 Fog OVC002 37.4 37.4 100% 30.23 0.0
06 06:50 Calm 0.13 Fog OVC002 35.6 35.6 100% 30.22 0.0
06 06:35 Calm 0.25 Fog OVC002 35.6 35.6 100% 30.21 0.0
06 06:15 Calm 0.50 Fog OVC002 33.8 33.8 100% 30.2 0.0
06 05:55 Calm 0.15 Fog OVC002 33.8 33.8 100% 30.2 0.0
06 05:35 Calm 0.25 Fog OVC002 33.8 33.8 100% 30.19 0.0
06 05:15 Calm 0.25 Fog OVC002 33.8 33.8 100% 30.18 0.0
06 04:55 Calm 0.25 Fog OVC002 35.6 35.6 100% 30.17 0.0
06 04:35 Calm 0.25 Fog OVC002 35.6 35.6 100% 30.17 0.0
06 04:15 Calm 0.50 Fog OVC002 35.6 35.6 100% 30.16 0.0
06 03:55 Calm 0.50 Fog OVC002 35.6 35.6 100% 30.16 0.0
06 03:35 Calm 0.25 Fog OVC002 35.6 35.6 100% 30.15 0.0
06 03:15 Calm 0.25 Fog OVC002 35.6 35.6 100% 30.14 0.0
06 02:55 Calm 0.50 Fog OVC002 37.4 37.4 100% 30.14 0.0
06 02:35 Calm 0.00 Overcast OVC002 37.4 37.4 100% 30.13 0.0
06 02:15 Calm 0.00 Overcast OVC002 37.4 37.4 100% 30.13 0.0
06 01:55 Calm 0.50 Fog OVC002 37.4 37.4 100% 30.12 0.0
06 01:35 Calm 2.50 Fog/Mist BKN002 BKN100 37.4 37.4 100% 30.12 0.0
06 01:15 S 3 1.75 Fog/Mist SCT002 SCT090 35.6 35.6 100% 30.12 0.0
06 00:55 Calm 1.00 Fog/Mist VV007 41 41 100% 30.11 0.0
06 00:35 Calm 0.75 Fog/Mist BKN001 39.2 39.2 100% 30.11 0.0
06 00:15 Calm 0.25 Fog OVC001 39.2 39.2 100% 30.1 0.0
05 23:55 Calm 1.00 Fog/Mist BKN001 41 41 100% 30.09 0.0
05 23:35 Calm 0.75 Fog/Mist BKN001 41 41 100% 30.09 0.0
05 23:15 Calm 10.00 Fair CLR 41 41 100% 30.08 0.0
05 22:55 Calm 10.00 Partly Cloudy SCT100 44.6 44.6 100% 30.07 0.0
05 22:15 SW 3 10.00 Mostly Cloudy BKN100 44.6 44.6 100% 30.06 0.0
05 21:55 Calm 10.00 Overcast OVC100 44.6 44.6 100% 30.06 0.0
05 21:35 Calm 10.00 Overcast OVC095 46.4 46.4 100% 30.05 0.0
05 21:15 S 3 10.00 Mostly Cloudy BKN100 46.4 44.6 93% 30.04 0.0
05 20:55 S 5 10.00 Mostly Cloudy BKN090 46.4 44.6 93% 45 30.03 0.0
05 20:35 Calm 10.00 Mostly Cloudy BKN090 48.2 44.6 87% 30.02 0.0
05 20:15 Calm 10.00 Partly Cloudy SCT100 50 46.4 88% 30.01 0.0
05 19:50 Calm 10.00 Partly Cloudy SCT035 51.8 48.2 88% 30 0.0
05 18:47 W 9 10.00 Light Showers Rain SCT055 BKN065 BKN100 59 44.6 59% 29.97 0.0
05 17:50 NW 6 10.00 Partly Cloudy SCT075 62.6 39.2 42% 29.97 0.0
05 16:47 NE 6 G 17 10.00 Partly Cloudy SCT065 62.6 37.4 39% 29.96 0.0
05 15:50 NE 9 10.00 Mostly Cloudy BKN055 60.8 39.2 45% 29.97 0.0
05 14:50 NW 10 10.00 Mostly Cloudy SCT046 BKN050 60.8 39.2 45% 29.98 0.0
05 13:50 NW 10 10.00 Mostly Cloudy SCT046 BKN055 57.2 41 55% 29.99 0.0
05 12:50 N 9 10.00 Mostly Cloudy SCT022 SCT028 BKN040 57.2 44.6 63% 29.99 0.0
05 11:50 Calm 10.00 Mostly Cloudy SCT017 BKN025 50 42.8 76% 30 0.0
05 10:47 Calm 4.00 Fog/Mist SCT006 OVC013 44.6 41 87% 29.99 0.0
05 09:50 Calm 2.00 Fog/Mist SCT006 OVC011 42.8 39.2 87% 29.98 0.0
05 08:50 Calm 2.00 Fog/Mist SCT005 OVC011 39.2 39.2 100% 29.97 0.0
05 07:50 Calm 2.00 Fog/Mist OVC009 39.2 37.4 93% 29.95 0.0
05 06:50 Calm 2.00 Fog/Mist BKN007 OVC011 37.4 37.4 100% 29.94 0.0
05 06:35 Calm 3.00 Fog/Mist OVC009 37.4 37.4 100% 29.93 0.0
05 06:15 Calm 4.00 Fog/Mist OVC009 37.4 37.4 100% 29.92 0.0
05 05:55 Calm 7.00 Overcast OVC009 35.6 35.6 100% 29.92 0.0
05 05:35 Calm 7.00 Overcast SCT005 OVC011 35.6 35.6 100% 29.92 0.0
05 05:15 Calm 4.00 Fog/Mist SCT005 OVC011 35.6 35.6 100% 29.92 0.0
05 04:55 Calm 7.00 Overcast SCT005 OVC011 37.4 35.6 93% 29.92 0.0
05 04:35 Calm 10.00 Overcast OVC011 37.4 35.6 93% 29.92 0.0
05 04:15 Calm 10.00 Overcast OVC011 37.4 35.6 93% 29.92 0.0
05 03:55 Calm 10.00 Overcast OVC013 37.4 35.6 93% 29.92 0.0
05 03:35 Calm 10.00 Overcast OVC013 35.6 35.6 100% 29.92 0.0
05 03:15 Calm 10.00 Overcast OVC015 35.6 35.6 100% 29.92 0.0
05 02:55 Calm 10.00 Overcast OVC015 35.6 35.6 100% 29.94 0.0
05 02:35 Calm 10.00 Overcast OVC015 35.6 35.6 100% 29.94 0.0
05 02:15 Calm 10.00 Overcast OVC015 35.6 35.6 100% 29.94 0.0
05 01:55 Calm 10.00 Overcast OVC017 35.6 35.6 100% 29.94 0.0
05 01:35 Calm 10.00 Overcast OVC017 35.6 35.6 100% 29.95 0.0
05 01:15 Calm 10.00 Overcast OVC017 35.6 35.6 100% 29.95 0.0
05 00:55 Calm 10.00 Overcast SCT004 OVC019 35.6 35.6 100% 29.96 0.0
05 00:35 Calm 10.00 Overcast OVC019 35.6 35.6 100% 29.96 0.0
05 00:15 Calm 10.00 Mostly Cloudy BKN021 35.6 35.6 100% 29.95 0.0
04 23:55 Calm 10.00 Partly Cloudy SCT021 SCT060 SCT090 35.6 33.8 93% 29.94 0.0
04 23:35 Calm 10.00 Mostly Cloudy SCT019 SCT033 BKN060 35.6 35.6 100% 29.94 0.0
04 23:15 S 3 10.00 Overcast BKN019 BKN033 OVC050 35.6 35.6 100% 29.95 0.0
04 22:55 Calm 10.00 Light Drizzle SCT019 OVC031 35.6 35.6 100% 29.96 0.0 0.02
04 22:35 Calm 10.00 Rain BKN031 BKN037 OVC046 35.6 35.6 100% 29.97 0.0 0.02
04 22:15 Calm 10.00 Rain SCT013 BKN039 OVC060 35.6 35.6 100% 29.97 0.0 0.01
04 21:55 E 3 10.00 Rain SCT007 BKN015 OVC021 35.6 35.6 100% 29.97 0.0 0.03
04 21:35 Calm 5.00 Rain BKN017 OVC023 35.6 35.6 100% 29.97 0.0 0.02
04 21:15 N 5 10.00 Light Rain SCT019 BKN024 OVC036 35.6 35.6 100% 32 29.97 0.0
04 20:55 SW 3 5.00 Rain SCT017 SCT025 OVC035 35.6 35.6 100% 29.96 0.0 0.07
04 20:35 SW 3 7.00 Rain SCT015 SCT027 OVC035 35.6 35.6 100% 29.95 0.0 0.03
04 20:15 Calm 10.00 Drizzle BKN015 BKN024 OVC028 37.4 35.6 93% 29.96 0.0
04 19:50 E 6 7.00 Light Drizzle SCT015 OVC028 37.4 37.4 100% 33 29.95 0.0
04 18:50 E 5 3.00 Rain SCT008 BKN017 OVC024 39.2 37.4 93% 36 29.98 0.0
04 17:47 Calm 5.00 Light Rain BKN026 OVC030 42.8 39.2 87% 29.94 0.0
04 16:49 S 5 7.00 Overcast SCT025 OVC038 42.8 39.2 87% 41 29.94 0.0
04 15:50 SW 5 7.00 Overcast SCT018 OVC027 46.4 41 82% 45 29.94 0.0
04 15:49 S 5 7.00 Overcast SCT025 OVC038 42.8 39.2 87% 41 29.94 0.0
04 14:47 W 7 10.00 Overcast SCT015 BKN031 OVC070 44.6 41 87% 41 29.95 0.0
04 13:50 S 7 5.00 Light Drizzle SCT018 BKN038 OVC046 42.8 41 93% 39 29.95 0.0
04 12:47 Calm 10.00 Light Drizzle SCT018 BKN044 OVC060 42.8 41 93% 29.96 0.0
04 11:50 W 3 5.00 Light Rain Fog/Mist SCT018 BKN040 42.8 42.8 100% 29.97 0.0
04 10:47 Calm 7.00 Overcast FEW007 BKN031 BKN060 OVC090 42.8 41 93% 29.97 0.0
04 09:47 Calm 7.00 Light Rain SCT004 BKN033 BKN044 OVC060 42.8 39.2 87% 29.97 0.0
04 08:47 Calm 5.00 Fog/Mist BKN002 BKN085 OVC110 41 41 100% 29.95 0.0
04 07:47 Calm 1.00 Fog/Mist OVC003 39.2 39.2 100% 29.95 0.0
04 06:47 Calm 0.06 Fog OVC002 37.4 37.4 100% 29.95 0.0
04 06:35 Calm 0.15 Fog OVC002 37.4 37.4 100% 29.95 0.0
04 06:15 Calm 0.15 Fog OVC002 37.4 37.4 100% 29.95 0.0
04 05:55 Calm 0.25 Fog OVC002 37.4 37.4 100% 29.95 0.0
04 05:35 Calm 0.25 Fog OVC002 37.4 37.4 100% 29.95 0.0
04 05:15 Calm 0.50 Fog OVC002 37.4 37.4 100% 29.95 0.0
04 04:55 Calm 0.25 Fog OVC002 37.4 37.4 100% 29.95 0.0
04 04:35 Calm 0.50 Fog OVC002 37.4 37.4 100% 29.95 0.0
04 04:15 Calm 5.00 Light Drizzle BKN002 BKN019 OVC049 37.4 37.4 100% 29.97 0.0
04 03:55 Calm 10.00 Rain SCT002 BKN034 OVC050 37.4 37.4 100% 29.96 0.0
04 03:35 SE 8 0.50 Fog OVC002 37.4 37.4 100% 32 29.98 0.0
04 03:15 Calm 0.75 Thunderstorm in Vicinity Fog/Mist OVC002 37.4 37.4 100% 29.97 0.0
04 02:55 N 3 10.00 Partly Cloudy SCT002 35.6 35.6 100% 29.97 0.0
04 02:15 Calm 10.00 Fair CLR 37.4 37.4 100% 29.96 0.0
04 01:55 Calm 10.00 Partly Cloudy SCT065 SCT095 37.4 37.4 100% 29.96 0.0
04 01:35 SE 3 10.00 Overcast SCT065 OVC095 37.4 37.4 100% 29.97 0.0
04 01:15 Calm 10.00 Overcast SCT070 SCT075 OVC090 37.4 37.4 100% 29.97 0.0
04 00:55 Calm 10.00 Overcast OVC100 37.4 37.4 100% 29.98 0.0
04 00:35 Calm 10.00 Overcast SCT080 OVC100 39.2 37.4 93% 29.98 0.0
04 00:15 Calm 10.00 Overcast OVC110 37.4 37.4 100% 29.97 0.0
03 23:55 SE 3 10.00 Mostly Cloudy BKN110 37.4 37.4 100% 29.97 0.0
03 23:35 S 5 10.00 Fair CLR 37.4 37.4 100% 34 29.97 0.0
03 23:15 Calm 10.00 Partly Cloudy SCT090 37.4 37.4 100% 29.97 0.0
03 22:55 Calm 10.00 Mostly Cloudy BKN090 37.4 37.4 100% 29.98 0.0
03 22:35 E 3 10.00 Mostly Cloudy BKN090 37.4 37.4 100% 29.98 0.0
03 22:15 SE 3 10.00 Partly Cloudy SCT100 41 39.2 93% 29.98 0.0
03 21:55 S 3 10.00 Mostly Cloudy SCT100 BKN120 41 39.2 93% 29.98 0.0
03 21:35 Calm 10.00 Partly Cloudy SCT120 41 39.2 93% 29.98 0.0
03 21:15 SE 3 10.00 Mostly Cloudy BKN110 41 41 100% 29.98 0.0
03 20:55 S 3 10.00 Overcast OVC110 42.8 41 93% 29.97 0.0
03 20:35 S 5 10.00 Partly Cloudy SCT120 42.8 41 93% 41 29.97 0.0
03 20:15 Calm 10.00 Partly Cloudy SCT120 42.8 39.2 87% 29.97 0.0
03 19:50 SW 5 10.00 Overcast SCT080 SCT100 OVC120 44.6 39.2 81% 43 29.97 0.0
03 18:50 Vrbl 5 10.00 Mostly Cloudy BKN110 48.2 37.4 66% 47 29.98 0.0
03 17:50 Calm 10.00 Overcast SCT030 BKN050 OVC120 46.4 39.2 76% 29.99 0.0
03 16:48 Calm 10.00 Overcast SCT029 BKN037 BKN050 OVC120 44.6 37.4 76% 30.03 0.0
03 15:50 SW 10 5.00 Light Rain SCT026 BKN033 OVC039 44.6 39.2 81% 40 30.03 0.0
03 14:47 S 20 G 33 7.00 Thunderstorm Light Rain BKN041CB BKN055 OVC120 46.4 37.4 71% 40 30 0.0
03 13:50 NW 12 10.00 Mostly Cloudy SCT070CB BKN085 BKN100 64.4 35.6 34% 29.91 0.0
Date Time (pdt) Wind (mph) Vis. (mi.) Weather Sky Cond. Air Dwpt Max. Min. Relative Humidity Wind Chill (°F) Heat Index (°F) altimeter (in) sea level (mb) 1 hr 3 hr 6 hr
6 hour
Temperature (ºF) Pressure Precipitation (in)